createdAt,value
2018-04-30T00:01:42.451Z,15.82
2018-04-30T00:04:10.912Z,15.53
2018-04-30T00:06:40.771Z,15.45
2018-04-30T00:09:09.238Z,15.36
2018-04-30T00:11:38.979Z,15.33
2018-04-30T00:14:08.781Z,15.32
2018-04-30T00:16:37.199Z,15.21
2018-04-30T00:19:05.562Z,15.15
2018-04-30T00:21:36.604Z,15.05
2018-04-30T00:24:05.044Z,14.93
2018-04-30T00:26:33.400Z,14.68
2018-04-30T00:29:01.835Z,14.50
2018-04-30T00:31:30.228Z,14.40
2018-04-30T00:33:58.661Z,14.12
2018-04-30T00:36:29.048Z,14.05
2018-04-30T00:38:57.491Z,14.16
2018-04-30T00:41:27.842Z,14.13
2018-04-30T00:43:56.244Z,14.13
2018-04-30T00:46:25.919Z,14.05
2018-04-30T00:48:55.999Z,13.89
2018-04-30T00:51:24.432Z,13.90
2018-04-30T00:53:52.881Z,13.87
2018-04-30T00:56:21.308Z,13.71
2018-04-30T00:58:51.722Z,13.79
2018-04-30T01:01:20.123Z,13.82
2018-04-30T01:03:49.799Z,13.59
2018-04-30T01:06:19.621Z,13.54
2018-04-30T01:08:48.035Z,13.45
2018-04-30T01:11:16.400Z,13.44
2018-04-30T01:13:44.828Z,13.35
2018-04-30T01:16:13.270Z,13.39
2018-04-30T01:18:41.691Z,13.32
2018-04-30T01:21:12.136Z,13.22
2018-04-30T01:23:40.555Z,13.18
2018-04-30T01:26:08.962Z,13.05
2018-04-30T01:28:37.404Z,13.04
2018-04-30T01:31:05.890Z,13.13
2018-04-30T01:33:39.911Z,13.05
2018-04-30T01:36:08.310Z,13.10
2018-04-30T01:38:41.946Z,13.08
2018-04-30T01:41:10.392Z,12.90
2018-04-30T01:43:38.828Z,12.78
2018-04-30T01:46:07.275Z,12.83
2018-04-30T01:48:35.751Z,12.84
2018-04-30T01:51:04.258Z,12.79
2018-04-30T01:53:32.699Z,12.59
2018-04-30T01:56:01.149Z,12.32
2018-04-30T01:58:29.568Z,11.91
2018-04-30T02:01:00.982Z,11.83
2018-04-30T02:03:29.391Z,11.67
2018-04-30T02:05:57.822Z,11.65
2018-04-30T02:08:26.246Z,11.61
2018-04-30T02:10:54.653Z,11.48
2018-04-30T02:13:23.088Z,11.27
2018-04-30T02:15:51.483Z,11.23
2018-04-30T02:18:21.455Z,11.21
2018-04-30T02:20:49.863Z,11.14
2018-04-30T02:23:18.299Z,11.11
2018-04-30T02:25:46.723Z,11.01
2018-04-30T02:28:15.170Z,10.93
2018-04-30T02:30:43.630Z,10.86
2018-04-30T02:33:12.028Z,10.78
2018-04-30T02:35:40.452Z,10.70
2018-04-30T02:38:10.829Z,10.69
2018-04-30T02:40:39.247Z,10.62
2018-04-30T02:43:07.599Z,10.67
2018-04-30T02:45:36.100Z,10.54
2018-04-30T02:48:04.468Z,10.61
2018-04-30T02:50:34.871Z,10.64
2018-04-30T02:53:03.299Z,10.68
2018-04-30T02:55:34.044Z,10.62
2018-04-30T02:58:02.487Z,10.60
2018-04-30T03:00:30.887Z,10.66
2018-04-30T03:02:59.298Z,10.67
2018-04-30T03:05:27.709Z,10.64
2018-04-30T03:07:56.065Z,10.54
2018-04-30T03:10:24.436Z,10.62
2018-04-30T03:12:52.873Z,10.59
2018-04-30T03:15:21.332Z,10.63
2018-04-30T03:17:49.775Z,10.58
2018-04-30T03:20:18.230Z,10.56
2018-04-30T03:22:46.663Z,10.50
2018-04-30T03:25:15.099Z,10.52
2018-04-30T03:27:44.884Z,10.48
2018-04-30T03:30:13.288Z,10.47
2018-04-30T03:32:41.723Z,10.40
2018-04-30T03:35:10.124Z,10.48
2018-04-30T03:37:38.687Z,10.44
2018-04-30T03:40:07.102Z,10.36
2018-04-30T03:42:35.531Z,10.34
2018-04-30T03:45:04.019Z,10.40
2018-04-30T03:47:33.672Z,10.33
2018-04-30T03:50:02.057Z,10.29
2018-04-30T03:52:30.523Z,10.22
2018-04-30T03:54:58.960Z,10.20
2018-04-30T03:57:27.376Z,10.01
2018-04-30T03:59:55.778Z,10.14
2018-04-30T04:02:30.343Z,10.20
2018-04-30T04:05:04.768Z,10.23
2018-04-30T04:07:33.150Z,10.26
2018-04-30T04:10:01.543Z,10.11
2018-04-30T04:12:29.982Z,10.14
2018-04-30T04:14:58.431Z,10.24
2018-04-30T04:17:30.627Z,10.18
2018-04-30T04:19:59.378Z,10.07
2018-04-30T04:22:27.744Z,9.92
2018-04-30T04:24:58.227Z,9.86
2018-04-30T04:27:26.655Z,9.87
2018-04-30T04:29:55.070Z,9.85
2018-04-30T04:32:23.523Z,9.67
2018-04-30T04:34:51.972Z,9.76
2018-04-30T04:37:20.382Z,9.81
2018-04-30T04:39:48.819Z,9.81
2018-04-30T04:42:17.338Z,9.72
2018-04-30T04:44:45.748Z,9.69
2018-04-30T04:47:14.189Z,9.67
2018-04-30T04:49:44.171Z,9.69
2018-04-30T04:52:13.945Z,9.66
2018-04-30T04:54:42.350Z,9.64
2018-04-30T04:57:10.818Z,9.51
2018-04-30T04:59:42.924Z,9.54
2018-04-30T05:02:11.394Z,9.45
2018-04-30T05:04:39.915Z,9.47
2018-04-30T05:07:08.335Z,9.43
2018-04-30T05:09:36.760Z,9.41
2018-04-30T05:12:05.212Z,9.37
2018-04-30T05:14:33.696Z,9.40
2018-04-30T05:17:02.043Z,9.43
2018-04-30T05:19:32.826Z,9.45
2018-04-30T05:22:01.215Z,9.49
2018-04-30T05:24:30.650Z,9.52
2018-04-30T05:26:59.052Z,9.60
2018-04-30T05:29:28.829Z,9.69
2018-04-30T05:31:57.287Z,9.81
2018-04-30T05:34:27.106Z,9.90
2018-04-30T05:36:56.947Z,10.06
2018-04-30T05:39:26.971Z,10.13
2018-04-30T05:41:56.915Z,10.54
2018-04-30T05:44:25.363Z,10.94
2018-04-30T05:46:53.831Z,11.22
2018-04-30T05:49:22.267Z,11.35
2018-04-30T05:51:50.723Z,11.58
2018-04-30T05:54:19.138Z,11.75
2018-04-30T05:56:47.620Z,11.85
2018-04-30T05:59:16.058Z,11.95
2018-04-30T06:01:44.502Z,12.09
2018-04-30T06:04:12.907Z,12.23
2018-04-30T06:06:41.328Z,12.62
2018-04-30T06:09:09.780Z,12.64
2018-04-30T06:11:37.162Z,12.64
2018-04-30T06:14:06.883Z,12.56
2018-04-30T06:16:35.369Z,12.48
2018-04-30T06:19:03.862Z,12.60
2018-04-30T06:21:32.167Z,12.81
2018-04-30T06:24:00.663Z,12.73
2018-04-30T06:26:29.117Z,13.05
2018-04-30T06:28:58.987Z,13.50
2018-04-30T06:31:27.327Z,13.54
2018-04-30T06:33:55.751Z,13.75
2018-04-30T06:36:25.634Z,13.65
2018-04-30T06:38:53.991Z,13.76
2018-04-30T06:41:22.394Z,13.77
2018-04-30T06:43:52.159Z,13.97
2018-04-30T06:46:20.579Z,14.22
2018-04-30T06:48:50.304Z,14.77
2018-04-30T06:51:20.058Z,14.94
2018-04-30T06:53:48.419Z,15.73
2018-04-30T06:56:16.851Z,16.40
2018-04-30T06:58:45.239Z,16.22
2018-04-30T07:01:14.599Z,16.75
2018-04-30T07:03:42.963Z,17.50
2018-04-30T07:06:11.368Z,18.23
2018-04-30T07:08:39.739Z,18.75
2018-04-30T07:11:08.163Z,19.11
2018-04-30T07:13:37.119Z,19.26
2018-04-30T07:16:05.485Z,19.61
2018-04-30T07:18:33.880Z,20.06
2018-04-30T07:21:02.286Z,20.25
2018-04-30T07:23:30.636Z,20.43
2018-04-30T07:25:59.181Z,20.83
2018-04-30T07:28:28.123Z,20.72
2018-04-30T07:30:56.491Z,20.97
2018-04-30T07:33:25.915Z,21.28
2018-04-30T07:35:55.316Z,21.48
2018-04-30T07:38:23.743Z,21.75
2018-04-30T07:40:52.099Z,22.45
2018-04-30T07:43:20.128Z,22.63
2018-04-30T07:45:49.613Z,22.91
2018-04-30T07:48:18.067Z,22.91
2018-04-30T07:50:45.340Z,22.34
2018-04-30T07:53:14.759Z,21.37
2018-04-30T07:55:43.165Z,21.05
2018-04-30T07:58:11.526Z,20.27
2018-04-30T08:00:39.913Z,20.94
2018-04-30T08:03:08.723Z,20.95
2018-04-30T08:05:37.002Z,21.39
2018-04-30T08:08:06.371Z,21.57
2018-04-30T08:10:34.786Z,22.10
2018-04-30T08:13:03.145Z,22.17
2018-04-30T08:15:32.561Z,21.76
2018-04-30T08:18:00.923Z,21.84
2018-04-30T08:20:30.118Z,21.87
2018-04-30T08:22:58.563Z,22.11
2018-04-30T08:25:27.963Z,21.32
2018-04-30T08:27:56.403Z,21.62
2018-04-30T08:30:24.828Z,22.12
2018-04-30T08:32:53.260Z,21.44
2018-04-30T08:35:21.724Z,21.92
2018-04-30T08:37:50.116Z,21.72
2018-04-30T08:40:18.837Z,21.58
2018-04-30T08:42:47.219Z,21.42
2018-04-30T08:45:15.632Z,21.81
2018-04-30T08:47:45.024Z,22.70
2018-04-30T08:50:13.396Z,23.43
2018-04-30T08:52:40.658Z,23.64
2018-04-30T08:55:09.040Z,23.67
2018-04-30T08:57:38.439Z,22.55
2018-04-30T09:00:06.859Z,21.47
2018-04-30T09:02:36.187Z,22.33
2018-04-30T09:05:05.586Z,22.51
2018-04-30T09:07:33.963Z,22.77
2018-04-30T09:10:02.443Z,22.98
2018-04-30T09:12:30.899Z,23.08
2018-04-30T09:14:59.215Z,23.83
2018-04-30T09:17:27.401Z,24.31
2018-04-30T09:19:55.745Z,24.60
2018-04-30T09:22:23.840Z,24.91
2018-04-30T09:24:52.191Z,24.68
2018-04-30T09:27:20.540Z,25.27
2018-04-30T09:29:48.561Z,26.02
2018-04-30T09:32:16.984Z,25.49
2018-04-30T09:34:45.158Z,25.02
2018-04-30T09:37:13.418Z,25.58
2018-04-30T09:39:40.665Z,25.36
2018-04-30T09:42:09.059Z,24.48
2018-04-30T09:44:37.441Z,23.50
2018-04-30T09:47:05.808Z,24.04
2018-04-30T09:49:34.447Z,23.79
2018-04-30T09:52:02.769Z,23.59
2018-04-30T09:54:31.034Z,23.83
2018-04-30T09:56:59.463Z,24.03
2018-04-30T09:59:27.808Z,23.39
2018-04-30T10:01:56.868Z,23.62
2018-04-30T10:04:25.243Z,23.96
2018-04-30T10:06:53.596Z,23.78
2018-04-30T10:09:21.979Z,23.63
2018-04-30T10:11:50.360Z,22.79
2018-04-30T10:14:18.799Z,23.48
2018-04-30T10:16:47.180Z,22.89
2018-04-30T10:19:18.323Z,23.25
2018-04-30T10:21:46.763Z,22.79
2018-04-30T10:24:16.610Z,22.63
2018-04-30T10:26:45.532Z,22.34
2018-04-30T10:29:15.359Z,22.45
2018-04-30T10:31:43.960Z,22.37
2018-04-30T10:34:12.428Z,21.68
2018-04-30T10:36:40.867Z,22.66
2018-04-30T10:39:09.612Z,22.07
2018-04-30T10:41:37.932Z,22.91
2018-04-30T10:44:06.247Z,22.88
2018-04-30T10:46:35.832Z,22.89
2018-04-30T10:49:04.040Z,23.13
2018-04-30T10:51:32.532Z,23.53
2018-04-30T10:54:00.591Z,23.99
2018-04-30T10:56:28.919Z,24.01
2018-04-30T10:58:57.068Z,23.09
2018-04-30T11:01:24.344Z,22.04
2018-04-30T11:03:52.750Z,21.59
2018-04-30T11:06:21.066Z,21.62
2018-04-30T11:08:49.451Z,20.57
2018-04-30T11:11:17.936Z,20.45
2018-04-30T11:13:46.324Z,20.80
2018-04-30T11:16:14.777Z,20.57
2018-04-30T11:18:43.155Z,20.53
2018-04-30T11:21:11.558Z,20.38
2018-04-30T11:23:40.778Z,20.12
2018-04-30T11:26:09.272Z,19.78
2018-04-30T11:28:37.604Z,19.80
2018-04-30T11:31:06.078Z,19.66
2018-04-30T11:33:34.448Z,20.08
2018-04-30T11:36:02.942Z,19.85
2018-04-30T11:38:31.332Z,20.19
2018-04-30T11:41:00.794Z,20.22
2018-04-30T11:43:29.228Z,20.23
2018-04-30T11:45:57.651Z,20.46
2018-04-30T11:48:26.202Z,20.15
2018-04-30T11:50:54.635Z,19.74
2018-04-30T11:53:23.045Z,19.78
2018-04-30T11:55:51.491Z,19.86
2018-04-30T11:58:19.918Z,19.82
2018-04-30T12:00:48.335Z,19.80
2018-04-30T12:03:17.740Z,20.09
2018-04-30T12:05:47.167Z,20.17
2018-04-30T12:08:15.561Z,19.83
2018-04-30T12:10:44.042Z,20.11
2018-04-30T12:13:12.431Z,19.97
2018-04-30T12:15:40.897Z,19.94
2018-04-30T12:18:09.594Z,20.27
2018-04-30T12:20:38.292Z,20.47
2018-04-30T12:23:06.627Z,20.38
2018-04-30T12:25:35.036Z,20.18
2018-04-30T12:28:03.439Z,19.75
2018-04-30T12:30:33.012Z,19.57
2018-04-30T12:33:02.410Z,19.28
2018-04-30T12:35:30.874Z,18.93
2018-04-30T12:37:59.270Z,18.98
2018-04-30T12:40:27.727Z,19.04
2018-04-30T12:42:56.162Z,19.10
2018-04-30T12:45:25.815Z,18.93
2018-04-30T12:47:55.007Z,19.02
2018-04-30T12:50:23.521Z,18.95
2018-04-30T12:52:52.897Z,19.04
2018-04-30T12:55:21.631Z,19.15
2018-04-30T12:57:49.954Z,19.03
2018-04-30T13:00:18.355Z,19.20
2018-04-30T13:02:46.775Z,19.45
2018-04-30T13:05:15.231Z,19.14
2018-04-30T13:07:44.619Z,19.12
2018-04-30T13:10:13.059Z,18.87
2018-04-30T13:12:42.468Z,18.77
2018-04-30T13:15:11.731Z,18.72
2018-04-30T13:17:54.517Z,18.35
2018-04-30T13:20:22.897Z,18.33
2018-04-30T13:22:51.309Z,18.07
2018-04-30T13:25:20.232Z,18.02
2018-04-30T13:27:48.611Z,17.94
2018-04-30T13:30:16.964Z,18.06
2018-04-30T13:32:45.391Z,18.03
2018-04-30T13:35:13.756Z,18.23
2018-04-30T13:37:42.127Z,18.07
2018-04-30T13:40:11.550Z,18.12
2018-04-30T13:42:39.887Z,18.12
2018-04-30T13:45:08.243Z,18.27
2018-04-30T13:47:36.619Z,18.46
2018-04-30T13:50:04.991Z,18.51
2018-04-30T13:52:33.427Z,18.62
2018-04-30T13:55:02.842Z,18.11
2018-04-30T13:57:31.217Z,18.13
2018-04-30T13:59:59.598Z,18.10
2018-04-30T14:02:28.020Z,18.11
2018-04-30T14:04:56.428Z,18.16
2018-04-30T14:07:23.764Z,18.16
2018-04-30T14:09:53.599Z,18.21
2018-04-30T14:12:21.954Z,18.32
2018-04-30T14:14:52.630Z,18.57
2018-04-30T14:17:19.876Z,18.73
2018-04-30T14:19:50.671Z,18.47
2018-04-30T14:22:20.044Z,18.41
2018-04-30T14:24:48.416Z,18.44
2018-04-30T14:27:16.819Z,18.36
2018-04-30T14:29:45.192Z,18.25
2018-04-30T14:32:13.600Z,18.05
2018-04-30T14:34:41.934Z,18.20
2018-04-30T14:37:11.756Z,18.13
2018-04-30T14:39:40.113Z,18.02
2018-04-30T14:42:09.546Z,18.26
2018-04-30T14:44:38.028Z,18.44
2018-04-30T14:47:07.428Z,18.48
2018-04-30T14:49:36.507Z,18.33
2018-04-30T14:52:04.904Z,18.41
2018-04-30T14:54:33.288Z,18.33
2018-04-30T14:57:01.952Z,18.14
2018-04-30T14:59:30.303Z,17.95
2018-04-30T15:01:58.679Z,17.65
2018-04-30T15:04:27.098Z,17.46
2018-04-30T15:06:55.435Z,17.66
2018-04-30T15:09:24.404Z,17.45
2018-04-30T15:11:52.715Z,17.13
2018-04-30T15:14:21.144Z,17.04
2018-04-30T15:16:49.488Z,17.00
2018-04-30T15:19:17.843Z,16.99
2018-04-30T15:21:47.444Z,16.88
2018-04-30T15:24:16.879Z,16.90
2018-04-30T15:26:45.200Z,16.77
2018-04-30T15:29:13.527Z,16.69
2018-04-30T15:31:41.964Z,16.80
2018-04-30T15:34:10.380Z,16.87
2018-04-30T15:36:38.734Z,16.76
2018-04-30T15:39:08.502Z,16.75
2018-04-30T15:41:36.961Z,16.66
2018-04-30T15:44:06.319Z,16.62
2018-04-30T15:46:34.665Z,16.42
2018-04-30T15:49:03.089Z,16.61
2018-04-30T15:51:31.580Z,16.66
2018-04-30T15:53:59.942Z,16.51
2018-04-30T15:56:28.318Z,16.41
2018-04-30T15:58:56.674Z,16.23
2018-04-30T16:01:25.976Z,15.98
2018-04-30T16:03:54.311Z,15.82
2018-04-30T16:06:22.705Z,15.71
2018-04-30T16:08:51.065Z,15.41
2018-04-30T16:11:19.553Z,15.33
2018-04-30T16:13:47.956Z,14.95
2018-04-30T16:16:17.647Z,14.90
2018-04-30T16:18:47.347Z,15.08
2018-04-30T16:21:15.719Z,15.24
2018-04-30T16:23:44.134Z,15.40
2018-04-30T16:26:12.511Z,15.41
2018-04-30T16:28:40.865Z,15.29
2018-04-30T16:31:09.299Z,15.38
2018-04-30T16:33:36.617Z,15.55
2018-04-30T16:36:06.078Z,15.36
2018-04-30T16:38:34.559Z,15.38
2018-04-30T16:41:02.908Z,15.49
2018-04-30T16:43:32.526Z,15.47
2018-04-30T16:46:00.967Z,15.33
2018-04-30T16:48:30.347Z,15.21
2018-04-30T16:50:58.855Z,15.19
2018-04-30T16:53:28.068Z,15.34
2018-04-30T16:55:56.425Z,15.46
2018-04-30T16:58:24.826Z,15.64
2018-04-30T17:00:53.201Z,15.65
2018-04-30T17:03:21.850Z,15.70
2018-04-30T17:05:50.231Z,15.75
2018-04-30T17:08:18.619Z,15.67
2018-04-30T17:10:47.031Z,15.65
2018-04-30T17:13:15.767Z,15.60
2018-04-30T17:15:44.207Z,15.51
2018-04-30T17:18:12.580Z,15.51
2018-04-30T17:20:41.016Z,15.38
2018-04-30T17:23:09.667Z,15.37
2018-04-30T17:25:38.081Z,15.18
2018-04-30T17:28:06.507Z,15.20
2018-04-30T17:30:34.925Z,15.11
2018-04-30T17:33:04.963Z,15.14
2018-04-30T17:35:33.621Z,14.82
2018-04-30T17:38:02.000Z,14.56
2018-04-30T17:40:30.344Z,14.37
2018-04-30T17:42:58.758Z,14.41
2018-04-30T17:45:27.156Z,14.40
2018-04-30T17:47:55.502Z,14.43
2018-04-30T17:50:27.247Z,14.30
2018-04-30T17:52:55.615Z,14.13
2018-04-30T17:55:23.995Z,13.88
2018-04-30T17:57:53.847Z,13.81
2018-04-30T18:00:22.545Z,13.67
2018-04-30T18:02:50.948Z,13.67
2018-04-30T18:05:22.986Z,13.45
2018-04-30T18:07:51.359Z,13.36
2018-04-30T18:10:19.738Z,13.29
2018-04-30T18:12:49.668Z,13.24
2018-04-30T18:15:17.999Z,13.10
2018-04-30T18:17:46.338Z,13.15
2018-04-30T18:20:14.736Z,13.15
2018-04-30T18:22:43.133Z,13.23
2018-04-30T18:25:11.531Z,13.38
2018-04-30T18:27:39.929Z,13.39
2018-04-30T18:30:08.292Z,13.30
2018-04-30T18:32:36.729Z,13.33
2018-04-30T18:35:05.043Z,13.30
2018-04-30T18:37:34.848Z,13.21
2018-04-30T18:40:03.244Z,13.20
2018-04-30T18:42:35.098Z,13.16
2018-04-30T18:45:03.489Z,13.07
2018-04-30T18:47:31.886Z,13.01
2018-04-30T18:50:00.316Z,13.00
2018-04-30T18:52:28.829Z,13.05
2018-04-30T18:54:57.299Z,13.03
2018-04-30T18:57:25.695Z,13.04
2018-04-30T18:59:54.090Z,13.02
2018-04-30T19:02:22.464Z,12.96
2018-04-30T19:04:50.891Z,13.02
2018-04-30T19:07:19.292Z,13.00
2018-04-30T19:09:47.684Z,13.01
2018-04-30T19:12:16.043Z,13.04
2018-04-30T19:14:44.511Z,12.99
2018-04-30T19:17:12.968Z,13.00
2018-04-30T19:19:41.298Z,12.96
2018-04-30T19:22:09.734Z,12.88
2018-04-30T19:24:38.099Z,12.98
2018-04-30T19:27:06.550Z,12.97
2018-04-30T19:29:34.863Z,12.95
2018-04-30T19:32:03.260Z,12.85
2018-04-30T19:34:31.642Z,12.64
2018-04-30T19:37:01.572Z,12.67
2018-04-30T19:39:29.913Z,12.77
2018-04-30T19:41:58.334Z,12.80
2018-04-30T19:44:26.774Z,12.69
2018-04-30T19:46:55.175Z,12.61
2018-04-30T19:49:25.078Z,12.61
2018-04-30T19:51:57.059Z,12.36
2018-04-30T19:54:25.448Z,12.50
2018-04-30T19:56:55.755Z,12.51
2018-04-30T19:59:24.092Z,12.27
2018-04-30T20:01:54.084Z,12.23
2018-04-30T20:04:22.629Z,12.28
2018-04-30T20:06:51.075Z,12.31
2018-04-30T20:09:19.529Z,12.18
2018-04-30T20:11:47.884Z,12.13
2018-04-30T20:14:16.261Z,12.05
2018-04-30T20:16:44.652Z,12.00
2018-04-30T20:19:13.087Z,11.98
2018-04-30T20:21:42.993Z,11.91
2018-04-30T20:24:13.379Z,11.79
2018-04-30T20:26:41.748Z,11.94
2018-04-30T20:29:10.238Z,11.98
2018-04-30T20:31:38.668Z,11.91
2018-04-30T20:34:07.132Z,11.91
2018-04-30T20:36:35.540Z,11.82
2018-04-30T20:39:04.853Z,11.70
2018-04-30T20:41:33.275Z,11.72
2018-04-30T20:44:01.619Z,11.61
2018-04-30T20:46:31.404Z,11.64
2018-04-30T20:48:59.783Z,11.71
2018-04-30T20:51:28.359Z,11.62
2018-04-30T20:53:56.729Z,11.60
2018-04-30T20:56:25.242Z,11.58
2018-04-30T20:58:53.628Z,11.69
2018-04-30T21:01:22.040Z,11.55
2018-04-30T21:03:50.375Z,11.67
2018-04-30T21:06:18.827Z,11.53
2018-04-30T21:08:53.376Z,11.49
2018-04-30T21:11:21.740Z,11.50
2018-04-30T21:13:50.116Z,11.43
2018-04-30T21:16:20.785Z,11.36
2018-04-30T21:18:51.090Z,11.50
2018-04-30T21:21:19.499Z,11.34
2018-04-30T21:23:49.848Z,11.29
2018-04-30T21:26:18.295Z,11.18
2018-04-30T21:28:46.688Z,11.18
2018-04-30T21:31:15.048Z,11.17
2018-04-30T21:33:43.391Z,11.11
2018-04-30T21:36:11.772Z,11.15
2018-04-30T21:38:43.590Z,11.18
2018-04-30T21:41:13.620Z,11.19
2018-04-30T21:43:42.043Z,11.11
2018-04-30T21:46:10.712Z,11.13
2018-04-30T21:48:39.097Z,11.26
2018-04-30T21:51:07.526Z,11.10
2018-04-30T21:53:37.680Z,11.10
2018-04-30T21:56:07.887Z,11.15
2018-04-30T21:58:36.272Z,11.01
2018-04-30T22:01:04.610Z,11.00
2018-04-30T22:03:33.333Z,10.91
2018-04-30T22:06:01.798Z,10.87
2018-04-30T22:08:33.423Z,10.91
2018-04-30T22:11:11.663Z,10.93
2018-04-30T22:13:40.103Z,10.86
2018-04-30T22:16:08.507Z,10.82
2018-04-30T22:18:38.268Z,10.78
2018-04-30T22:21:06.661Z,10.84
2018-04-30T22:23:35.173Z,10.84
2018-04-30T22:26:05.757Z,10.81
2018-04-30T22:28:34.151Z,10.81
2018-04-30T22:31:02.528Z,10.90
2018-04-30T22:33:30.959Z,10.81
2018-04-30T22:36:03.522Z,10.79
2018-04-30T22:38:32.065Z,10.73
2018-04-30T22:41:04.458Z,10.66
2018-04-30T22:43:32.908Z,10.75
2018-04-30T22:46:02.955Z,10.72
2018-04-30T22:48:31.408Z,10.71
2018-04-30T22:51:01.188Z,10.70
2018-04-30T22:53:29.572Z,10.71
2018-04-30T22:55:58.250Z,10.66
2018-04-30T22:58:28.259Z,10.64
2018-04-30T23:00:56.686Z,10.61
2018-04-30T23:03:25.168Z,10.57
2018-04-30T23:05:55.631Z,10.56
2018-04-30T23:08:26.083Z,10.62
2018-04-30T23:10:56.531Z,10.62
2018-04-30T23:13:26.828Z,10.59
2018-04-30T23:15:55.343Z,10.48
2018-04-30T23:18:23.761Z,10.47
2018-04-30T23:20:52.167Z,10.39
2018-04-30T23:23:20.594Z,10.49
2018-04-30T23:25:49.025Z,10.46
2018-04-30T23:28:17.803Z,10.45
2018-04-30T23:30:46.271Z,10.34
2018-04-30T23:33:14.697Z,10.25
2018-04-30T23:35:44.780Z,10.26
2018-04-30T23:38:13.190Z,10.26
2018-04-30T23:40:41.611Z,10.31
2018-04-30T23:43:10.013Z,10.25
2018-04-30T23:45:38.487Z,10.26
2018-04-30T23:48:06.912Z,10.33
2018-04-30T23:50:35.363Z,10.27
2018-04-30T23:53:03.847Z,10.36
2018-04-30T23:55:34.416Z,10.44
2018-04-30T23:58:02.852Z,10.40
